Time;durP1;ratioP1;P1;durP2;ratioP2;P2;SDS_P1;SDS_P2;PMS_P1;PMS_P2;Temp;Humidity;BMP_temperature;BMP_pressure;BME280_temperature;BME280_humidity;BME280_pressure;Samples;Min_cycle;Max_cycle;Signal;HPM_P1;HPM_P2
2021/09/10 00:02:24;;;;;;;18.67;16.73;;;21.50;99.90;;;;;;5003881;28;20194;-51
2021/09/10 00:04:51;;;;;;;18.20;15.93;;;21.40;99.90;;;;;;5001360;28;20336;-51
2021/09/10 00:07:18;;;;;;;18.53;16.50;;;21.40;99.90;;;;;;5007792;28;20199;-51
2021/09/10 00:09:44;;;;;;;21.43;16.73;;;21.40;99.90;;;;;;4998880;28;20304;-51
2021/09/10 00:12:11;;;;;;;20.93;17.87;;;21.40;99.90;;;;;;5000645;28;20205;-51
2021/09/10 00:14:38;;;;;;;21.23;17.73;;;21.20;99.90;;;;;;5004151;28;20202;-51
2021/09/10 00:17:05;;;;;;;22.60;18.00;;;21.30;99.90;;;;;;5000879;28;20637;-51
2021/09/10 00:19:32;;;;;;;22.17;17.77;;;21.10;99.90;;;;;;4999154;28;20291;-51
2021/09/10 00:21:59;;;;;;;21.20;18.23;;;21.00;99.90;;;;;;5001896;28;20205;-51
2021/09/10 00:24:26;;;;;;;20.77;17.87;;;20.90;99.90;;;;;;4996679;28;20297;-51
2021/09/10 00:26:53;;;;;;;23.50;17.57;;;21.00;99.90;;;;;;5000932;28;20212;-51
2021/09/10 00:29:19;;;;;;;22.33;18.60;;;21.00;99.90;;;;;;5003366;28;20300;-51
2021/09/10 00:31:47;;;;;;;21.97;18.47;;;20.80;99.90;;;;;;4996479;28;20316;-51
2021/09/10 00:34:14;;;;;;;23.37;18.40;;;20.70;99.90;;;;;;4996934;28;20193;-51
2021/09/10 00:36:44;;;;;;;23.10;19.17;;;20.80;99.90;;;;;;4998605;28;20284;-51
2021/09/10 00:39:17;;;;;;;22.30;17.87;;;20.90;99.90;;;;;;4997113;28;20580;-51
2021/09/10 00:41:44;;;;;;;20.53;17.40;;;20.80;99.90;;;;;;5001667;28;20219;-51
2021/09/10 00:44:10;;;;;;;23.43;18.07;;;20.80;99.90;;;;;;5010696;28;20394;-51
2021/09/10 00:46:37;;;;;;;21.97;17.73;;;20.70;99.90;;;;;;4999971;28;20301;-51
2021/09/10 00:49:05;;;;;;;23.27;18.37;;;20.80;99.90;;;;;;4995569;28;20273;-51
2021/09/10 00:51:32;;;;;;;22.03;17.40;;;20.80;99.90;;;;;;5001057;28;20302;-51
2021/09/10 00:53:59;;;;;;;20.57;17.67;;;20.90;99.90;;;;;;4996702;28;20204;-51
2021/09/10 00:56:26;;;;;;;21.23;17.43;;;20.90;99.90;;;;;;4996040;28;20216;-51
2021/09/10 00:58:56;;;;;;;25.20;18.00;;;20.90;99.90;;;;;;4998967;28;20808;-51
2021/09/10 01:01:23;;;;;;;19.43;16.93;;;21.00;99.90;;;;;;4999019;28;20221;-51
2021/09/10 01:03:51;;;;;;;20.47;17.23;;;21.00;99.90;;;;;;4999345;28;20206;-51
2021/09/10 01:06:21;;;;;;;22.83;17.47;;;21.00;99.90;;;;;;5011062;28;20231;-51
2021/09/10 01:08:50;;;;;;;21.97;17.27;;;21.00;99.90;;;;;;4998922;28;20606;-51
2021/09/10 01:11:18;;;;;;;18.97;16.97;;;21.00;99.90;;;;;;4998457;28;20742;-51
2021/09/10 01:13:46;;;;;;;19.30;17.30;;;20.90;99.90;;;;;;4999605;28;20287;-51
2021/09/10 01:16:14;;;;;;;19.87;16.80;;;20.90;99.90;;;;;;4995832;28;20372;-51
2021/09/10 01:18:41;;;;;;;22.07;17.17;;;20.90;99.90;;;;;;4997617;28;20253;-51
2021/09/10 01:21:08;;;;;;;20.57;16.57;;;20.70;99.90;;;;;;5001837;28;20691;-51
2021/09/10 01:23:35;;;;;;;17.47;15.63;;;20.70;99.90;;;;;;4996282;28;20234;-51
2021/09/10 01:26:03;;;;;;;18.53;16.57;;;20.60;99.90;;;;;;4998126;28;20245;-51
2021/09/10 01:28:30;;;;;;;20.50;16.87;;;20.50;99.90;;;;;;4999697;28;20628;-51
2021/09/10 01:30:57;;;;;;;19.00;16.87;;;20.60;99.90;;;;;;4999166;28;20268;-51
2021/09/10 01:33:24;;;;;;;22.17;15.93;;;20.60;99.90;;;;;;4995807;28;20209;-51
2021/09/10 01:35:51;;;;;;;18.10;16.17;;;20.50;99.90;;;;;;4996485;28;20204;-51
2021/09/10 01:38:18;;;;;;;18.80;16.40;;;20.50;99.90;;;;;;4996860;28;20206;-51
2021/09/10 01:40:45;;;;;;;17.73;15.93;;;20.50;99.90;;;;;;4997493;28;20198;-51
2021/09/10 01:43:12;;;;;;;18.20;16.40;;;20.40;99.90;;;;;;5000201;28;20233;-51
2021/09/10 01:45:39;;;;;;;17.50;15.47;;;20.30;99.90;;;;;;4998079;28;20327;-51
2021/09/10 01:48:06;;;;;;;18.80;16.20;;;20.30;99.90;;;;;;4995631;28;20316;-51
2021/09/10 01:50:32;;;;;;;19.83;15.53;;;20.40;99.90;;;;;;4998744;28;20292;-51
2021/09/10 01:52:59;;;;;;;21.53;14.33;;;20.40;99.90;;;;;;4999346;28;20989;-51
2021/09/10 01:55:28;;;;;;;16.87;15.07;;;20.30;99.90;;;;;;4997228;28;20229;-51
2021/09/10 01:57:54;;;;;;;17.43;14.60;;;20.40;99.90;;;;;;4995125;28;20657;-51
2021/09/10 02:00:21;;;;;;;17.47;15.57;;;20.30;99.90;;;;;;5000092;28;20905;-51
2021/09/10 02:02:48;;;;;;;16.97;15.17;;;20.30;99.90;;;;;;4997439;28;20310;-51
2021/09/10 02:05:15;;;;;;;18.80;14.97;;;20.20;99.90;;;;;;4995816;28;20236;-51
2021/09/10 02:07:42;;;;;;;16.03;13.77;;;20.20;99.90;;;;;;4997871;28;20251;-51
2021/09/10 02:10:11;;;;;;;16.77;14.80;;;20.20;99.90;;;;;;4993888;28;20733;-51
2021/09/10 02:12:39;;;;;;;18.13;14.37;;;20.20;99.90;;;;;;4999847;28;20267;-51
2021/09/10 02:15:09;;;;;;;20.03;14.60;;;20.20;99.90;;;;;;4997184;28;20212;-51
2021/09/10 02:17:36;;;;;;;21.97;15.63;;;20.20;99.90;;;;;;5002328;28;20314;-51
2021/09/10 02:20:04;;;;;;;19.80;15.00;;;20.00;99.90;;;;;;4999486;28;20529;-51
2021/09/10 02:22:31;;;;;;;16.77;14.80;;;20.20;99.90;;;;;;4996487;28;20336;-51
2021/09/10 02:24:58;;;;;;;18.00;15.03;;;20.10;99.90;;;;;;4995659;28;20263;-51
2021/09/10 02:27:25;;;;;;;14.90;13.30;;;20.10;99.90;;;;;;5002020;28;20378;-51
2021/09/10 02:29:52;;;;;;;17.10;14.47;;;20.10;99.90;;;;;;4999259;28;20297;-51
2021/09/10 02:32:18;;;;;;;16.70;14.87;;;20.10;99.90;;;;;;4992864;28;20754;-51
2021/09/10 02:34:45;;;;;;;16.57;13.57;;;20.00;99.90;;;;;;4992028;28;20292;-51
2021/09/10 02:37:12;;;;;;;16.90;14.67;;;20.10;99.90;;;;;;4997581;28;20285;-51
2021/09/10 02:39:39;;;;;;;18.43;14.20;;;20.10;99.90;;;;;;4997661;28;20288;-51
2021/09/10 02:42:06;;;;;;;16.27;13.43;;;20.10;99.90;;;;;;5001934;28;20647;-51
2021/09/10 02:44:33;;;;;;;19.20;13.67;;;19.90;99.90;;;;;;4997208;28;20222;-51
2021/09/10 02:46:59;;;;;;;17.57;13.23;;;19.90;99.90;;;;;;4994614;28;20233;-51
2021/09/10 02:49:26;;;;;;;17.03;14.03;;;19.90;99.90;;;;;;4993415;28;20660;-51
2021/09/10 02:51:53;;;;;;;17.10;13.10;;;20.10;99.90;;;;;;5001187;28;20295;-51
2021/09/10 02:54:20;;;;;;;16.43;12.30;;;20.10;99.90;;;;;;4997389;28;20267;-51
2021/09/10 02:56:46;;;;;;;18.37;13.03;;;20.10;99.90;;;;;;5004254;28;20213;-51
2021/09/10 02:59:13;;;;;;;18.53;13.37;;;20.20;99.90;;;;;;5002540;28;20306;-51
2021/09/10 03:01:47;;;;;;;17.57;13.20;;;20.20;99.90;;;;;;5006728;28;20231;-51
2021/09/10 03:04:15;;;;;;;15.20;13.07;;;20.10;99.90;;;;;;5000559;28;20204;-51
2021/09/10 03:06:42;;;;;;;18.70;13.60;;;20.20;99.90;;;;;;5001955;28;20700;-51
2021/09/10 03:09:08;;;;;;;16.87;12.80;;;20.20;99.90;;;;;;4998355;28;20239;-51
2021/09/10 03:11:36;;;;;;;19.40;13.60;;;20.20;99.90;;;;;;4999149;28;20284;-51
2021/09/10 03:14:02;;;;;;;16.10;13.17;;;20.20;99.90;;;;;;4997920;28;20334;-51
2021/09/10 03:16:31;;;;;;;14.13;12.17;;;20.10;99.90;;;;;;4999042;28;20658;-51
2021/09/10 03:18:59;;;;;;;17.27;12.63;;;20.20;99.90;;;;;;4994946;28;20220;-51
2021/09/10 03:21:26;;;;;;;16.57;12.50;;;20.10;99.90;;;;;;4998524;28;20692;-51
2021/09/10 03:23:52;;;;;;;17.90;12.83;;;20.00;99.90;;;;;;4994934;28;20339;-51
2021/09/10 03:26:20;;;;;;;17.10;12.83;;;20.10;99.90;;;;;;4995274;28;20214;-51
2021/09/10 03:28:46;;;;;;;17.13;13.20;;;20.10;99.90;;;;;;4998515;28;20201;-51
2021/09/10 03:31:13;;;;;;;15.63;12.37;;;20.10;99.90;;;;;;4996716;28;20232;-51
2021/09/10 03:33:40;;;;;;;17.03;13.07;;;20.00;99.90;;;;;;4996060;28;20240;-50
2021/09/10 03:36:07;;;;;;;15.40;11.63;;;19.90;99.90;;;;;;4994194;28;20295;-51
2021/09/10 03:38:34;;;;;;;15.70;12.27;;;19.90;99.90;;;;;;4996230;28;20291;-51
2021/09/10 03:41:00;;;;;;;15.47;11.60;;;19.80;99.90;;;;;;4994223;28;20252;-51
2021/09/10 03:43:27;;;;;;;16.57;11.57;;;19.90;99.90;;;;;;4996170;28;20204;-51
2021/09/10 03:45:55;;;;;;;18.37;13.03;;;20.00;99.90;;;;;;4998716;28;20227;-51
2021/09/10 03:48:21;;;;;;;15.10;12.97;;;19.90;99.90;;;;;;4996170;28;20204;-51
2021/09/10 03:50:48;;;;;;;18.70;12.43;;;19.90;99.90;;;;;;4998774;28;20582;-51
2021/09/10 03:53:15;;;;;;;17.37;12.90;;;19.90;99.90;;;;;;4993478;28;20239;-51
2021/09/10 03:55:42;;;;;;;14.07;12.67;;;19.80;99.90;;;;;;4995285;28;20324;-51
2021/09/10 03:58:09;;;;;;;16.33;12.30;;;19.70;99.90;;;;;;4997668;28;20236;-51
2021/09/10 04:00:35;;;;;;;14.10;12.37;;;19.70;99.90;;;;;;5002401;28;20244;-50
2021/09/10 04:03:04;;;;;;;18.27;12.23;;;19.70;99.90;;;;;;5000245;28;20202;-51
2021/09/10 04:05:31;;;;;;;15.73;12.80;;;19.60;99.90;;;;;;4994777;28;20217;-51
2021/09/10 04:07:58;;;;;;;16.60;12.20;;;19.60;99.90;;;;;;5001705;28;20285;-51
2021/09/10 04:10:25;;;;;;;13.13;11.20;;;19.70;99.90;;;;;;4998994;28;20239;-51
2021/09/10 04:12:53;;;;;;;13.37;11.83;;;19.70;99.90;;;;;;5001565;28;20322;-51
2021/09/10 04:15:20;;;;;;;12.90;11.43;;;19.50;99.90;;;;;;5003434;28;20282;-51
2021/09/10 04:17:47;;;;;;;14.10;12.60;;;19.50;99.90;;;;;;5001165;28;20204;-51
2021/09/10 04:20:14;;;;;;;13.00;11.70;;;19.40;99.90;;;;;;5003984;28;20281;-51
2021/09/10 04:22:42;;;;;;;15.50;11.90;;;19.50;99.90;;;;;;5003552;28;20213;-51
2021/09/10 04:25:09;;;;;;;14.20;11.40;;;19.60;99.90;;;;;;5001288;28;20234;-51
2021/09/10 04:27:36;;;;;;;16.63;11.33;;;19.70;99.90;;;;;;4998141;28;20228;-51
2021/09/10 04:30:05;;;;;;;13.00;10.90;;;19.70;99.90;;;;;;4999743;28;20204;-51
2021/09/10 04:32:32;;;;;;;13.80;11.00;;;19.70;99.90;;;;;;4999053;28;20319;-51
2021/09/10 04:34:59;;;;;;;13.07;10.50;;;19.70;99.90;;;;;;5001825;28;20303;-51
2021/09/10 04:37:26;;;;;;;13.87;11.07;;;19.80;99.90;;;;;;4999080;28;20205;-51
2021/09/10 04:39:53;;;;;;;16.27;11.43;;;19.70;99.90;;;;;;4995246;28;20203;-51
2021/09/10 04:42:19;;;;;;;12.50;10.93;;;19.60;99.90;;;;;;5003471;28;20254;-51
2021/09/10 04:44:46;;;;;;;14.20;11.43;;;19.60;99.90;;;;;;5001873;28;20681;-51
2021/09/10 04:47:13;;;;;;;12.87;10.47;;;19.60;99.90;;;;;;4997481;28;20291;-51
2021/09/10 04:49:41;;;;;;;12.63;10.40;;;19.60;99.90;;;;;;4999138;28;20287;-51
2021/09/10 04:52:08;;;;;;;12.30;10.73;;;19.40;99.90;;;;;;4999793;28;20310;-51
2021/09/10 04:54:35;;;;;;;13.43;11.03;;;19.40;99.90;;;;;;4998126;28;20292;-51
2021/09/10 04:57:02;;;;;;;13.07;11.63;;;19.40;99.90;;;;;;4999290;28;20267;-51
2021/09/10 04:59:29;;;;;;;14.33;11.00;;;19.40;99.90;;;;;;5000303;28;20330;-51
2021/09/10 05:01:56;;;;;;;12.10;10.80;;;19.40;99.90;;;;;;5003504;28;20242;-51
2021/09/10 05:04:28;;;;;;;13.73;12.33;;;19.40;99.90;;;;;;4998639;28;20606;-51
2021/09/10 05:06:55;;;;;;;16.17;10.83;;;19.30;99.90;;;;;;4997873;28;20300;-51
2021/09/10 05:09:22;;;;;;;12.20;10.47;;;19.20;99.90;;;;;;4997720;28;20323;-51
2021/09/10 05:11:48;;;;;;;12.23;11.00;;;19.10;99.90;;;;;;5000536;28;20320;-51
2021/09/10 05:14:15;;;;;;;14.63;9.30;;;19.30;99.90;;;;;;4995117;28;20423;-51
2021/09/10 05:16:42;;;;;;;15.03;11.47;;;19.20;99.90;;;;;;5000142;28;20634;-51
2021/09/10 05:19:09;;;;;;;13.10;11.23;;;19.20;99.90;;;;;;5002012;28;20231;-51
2021/09/10 05:21:37;;;;;;;13.53;10.47;;;19.20;99.90;;;;;;5007826;28;20300;-50
2021/09/10 05:24:04;;;;;;;12.60;11.40;;;19.20;99.90;;;;;;5005291;28;20236;-51
2021/09/10 05:26:31;;;;;;;13.93;11.27;;;19.20;99.90;;;;;;4997636;28;20280;-50
2021/09/10 05:28:58;;;;;;;13.63;11.17;;;19.20;99.90;;;;;;4995944;28;20257;-50
2021/09/10 05:31:26;;;;;;;14.57;11.30;;;19.20;99.90;;;;;;5001160;28;20225;-51
2021/09/10 05:33:54;;;;;;;16.17;11.00;;;19.20;99.90;;;;;;4996057;28;20300;-51
2021/09/10 05:36:21;;;;;;;13.60;10.57;;;19.20;99.90;;;;;;4994090;28;20304;-51
2021/09/10 05:38:47;;;;;;;13.20;11.03;;;19.20;99.90;;;;;;4996953;28;20247;-51
2021/09/10 05:41:14;;;;;;;13.30;11.30;;;19.20;99.90;;;;;;4999628;28;20201;-51
2021/09/10 05:43:42;;;;;;;13.97;10.93;;;19.20;99.90;;;;;;4998277;28;20225;-51
2021/09/10 05:46:09;;;;;;;14.97;10.47;;;19.20;99.90;;;;;;5000322;28;20393;-51
2021/09/10 05:48:36;;;;;;;15.23;11.20;;;19.20;99.90;;;;;;4992197;28;20268;-51
2021/09/10 05:51:04;;;;;;;11.67;10.47;;;19.30;99.90;;;;;;4995479;28;20591;-50
2021/09/10 05:53:31;;;;;;;12.10;10.10;;;19.40;99.90;;;;;;4996609;28;20308;-51
2021/09/10 05:55:58;;;;;;;12.27;10.20;;;19.30;99.90;;;;;;4995139;28;20194;-51
2021/09/10 05:58:25;;;;;;;11.57;10.27;;;19.50;99.90;;;;;;4990002;28;20225;-51
2021/09/10 06:00:52;;;;;;;13.30;10.90;;;19.50;99.90;;;;;;4985655;28;20296;-51
2021/09/10 06:03:20;;;;;;;14.43;10.83;;;19.40;99.90;;;;;;4992579;28;20520;-51
2021/09/10 06:05:47;;;;;;;10.77;9.77;;;19.40;99.90;;;;;;4999698;28;20227;-51
2021/09/10 06:08:14;;;;;;;12.40;10.30;;;19.50;99.90;;;;;;4996066;28;20453;-51
2021/09/10 06:10:41;;;;;;;11.33;10.10;;;19.60;99.90;;;;;;4997464;28;20661;-51
2021/09/10 06:13:10;;;;;;;11.80;10.40;;;19.60;99.90;;;;;;4995206;28;20272;-51
2021/09/10 06:15:36;;;;;;;13.70;10.13;;;19.70;99.90;;;;;;4992710;28;20281;-50
2021/09/10 06:18:04;;;;;;;11.47;9.90;;;19.70;99.90;;;;;;4997505;28;20205;-51
2021/09/10 06:20:31;;;;;;;10.87;9.43;;;19.60;99.90;;;;;;4994264;28;20637;-51
2021/09/10 06:22:58;;;;;;;14.33;10.00;;;19.70;99.90;;;;;;4995407;28;20679;-51
2021/09/10 06:25:25;;;;;;;16.97;10.03;;;19.70;99.90;;;;;;4996428;28;20357;-51
2021/09/10 06:27:52;;;;;;;11.30;9.40;;;19.80;99.90;;;;;;4995315;28;20304;-51
2021/09/10 06:30:20;;;;;;;10.77;9.57;;;19.80;99.90;;;;;;4996097;28;20284;-51
2021/09/10 06:32:47;;;;;;;11.10;9.90;;;19.90;99.90;;;;;;4993589;28;20317;-51
2021/09/10 06:35:14;;;;;;;15.20;9.97;;;19.80;99.90;;;;;;4998272;28;20230;-51
2021/09/10 06:37:41;;;;;;;12.77;10.63;;;19.70;99.90;;;;;;4997924;28;20618;-51
2021/09/10 06:40:08;;;;;;;15.23;8.73;;;19.70;99.90;;;;;;4997868;28;20601;-51
2021/09/10 06:42:35;;;;;;;12.97;8.87;;;19.90;99.90;;;;;;4994572;28;20263;-51
2021/09/10 06:45:03;;;;;;;11.37;8.97;;;20.20;99.90;;;;;;4998152;28;20244;-51
2021/09/10 06:47:30;;;;;;;11.37;8.97;;;20.30;99.90;;;;;;4995834;28;20305;-51
2021/09/10 06:49:57;;;;;;;10.47;8.47;;;20.40;99.90;;;;;;4996606;28;20352;-51
2021/09/10 06:52:24;;;;;;;11.70;9.00;;;20.50;99.90;;;;;;4995968;28;20634;-51
2021/09/10 06:54:51;;;;;;;11.60;9.60;;;20.60;99.90;;;;;;4996253;28;20244;-51
2021/09/10 06:57:18;;;;;;;11.27;9.23;;;20.60;99.90;;;;;;4994912;28;20221;-51
2021/09/10 06:59:44;;;;;;;10.87;8.37;;;20.70;99.90;;;;;;5000631;28;20236;-51
2021/09/10 07:02:11;;;;;;;10.37;7.57;;;20.60;99.90;;;;;;4992354;28;20643;-51
2021/09/10 07:04:39;;;;;;;10.03;8.33;;;20.60;99.90;;;;;;4991417;28;20606;-51
2021/09/10 07:07:06;;;;;;;10.97;8.30;;;20.60;99.90;;;;;;4994043;28;20237;-51
2021/09/10 07:09:34;;;;;;;8.87;7.90;;;20.50;99.90;;;;;;4995716;28;20201;-51
2021/09/10 07:12:03;;;;;;;10.03;9.03;;;20.50;99.90;;;;;;4994704;28;20356;-51
2021/09/10 07:14:32;;;;;;;11.70;9.13;;;20.50;99.90;;;;;;4994345;28;20332;-51
2021/09/10 07:16:59;;;;;;;14.47;9.50;;;20.50;99.90;;;;;;4992418;28;20616;-51
2021/09/10 07:19:26;;;;;;;9.97;7.63;;;20.50;99.90;;;;;;4998195;28;20619;-51
2021/09/10 07:21:53;;;;;;;14.13;6.97;;;20.50;99.90;;;;;;4997083;28;20237;-51
2021/09/10 07:24:20;;;;;;;10.80;8.10;;;20.70;99.90;;;;;;4992249;28;20577;-51
2021/09/10 07:26:51;;;;;;;9.17;8.20;;;20.80;99.90;;;;;;4991165;28;20256;-51
2021/09/10 07:29:20;;;;;;;8.73;7.77;;;20.80;99.90;;;;;;4993263;28;20369;-51
2021/09/10 07:31:47;;;;;;;8.57;7.60;;;20.70;99.90;;;;;;4996410;28;20301;-51
2021/09/10 07:34:14;;;;;;;11.13;8.27;;;20.70;99.90;;;;;;4991068;28;20250;-51
2021/09/10 07:36:42;;;;;;;7.60;5.57;;;20.70;99.90;;;;;;4995295;28;20662;-51
2021/09/10 07:39:09;;;;;;;10.87;4.87;;;20.70;99.90;;;;;;4999932;28;20202;-51
2021/09/10 07:41:35;;;;;;;8.07;6.40;;;20.70;99.90;;;;;;5001706;28;20233;-51
2021/09/10 07:44:02;;;;;;;8.17;7.00;;;20.70;99.90;;;;;;5001078;28;20648;-51
2021/09/10 07:46:29;;;;;;;13.60;5.80;;;20.80;99.90;;;;;;4995721;28;20285;-51
2021/09/10 07:48:56;;;;;;;9.67;6.10;;;20.80;99.90;;;;;;5001206;28;20292;-51
2021/09/10 07:51:23;;;;;;;6.80;5.80;;;20.80;99.90;;;;;;4998324;28;20198;-51
2021/09/10 07:53:50;;;;;;;10.27;6.60;;;20.80;99.90;;;;;;5000901;28;20783;-51
2021/09/10 07:56:17;;;;;;;11.20;5.80;;;20.90;99.90;;;;;;4998617;28;20699;-51
2021/09/10 07:58:44;;;;;;;9.37;5.87;;;20.80;99.90;;;;;;4999416;28;20280;-51
2021/09/10 08:01:11;;;;;;;8.20;5.97;;;20.80;99.90;;;;;;4997419;28;20259;-51
2021/09/10 08:03:38;;;;;;;5.57;4.83;;;20.90;99.90;;;;;;4997104;28;20656;-50
2021/09/10 08:06:07;;;;;;;5.40;3.90;;;20.90;99.90;;;;;;4996278;28;20558;-50
2021/09/10 08:08:34;;;;;;;13.37;8.13;;;20.70;99.90;;;;;;4998482;28;20279;-51
2021/09/10 08:11:01;;;;;;;9.40;6.50;;;20.50;99.90;;;;;;4999035;28;20278;-50
2021/09/10 08:13:28;;;;;;;9.60;6.60;;;20.30;99.90;;;;;;4998008;28;20412;-50
2021/09/10 08:15:55;;;;;;;10.63;6.53;;;20.40;99.90;;;;;;5000311;28;20295;-51
2021/09/10 08:18:22;;;;;;;10.30;6.87;;;20.50;99.90;;;;;;4998809;28;20720;-51
2021/09/10 08:20:49;;;;;;;12.97;7.13;;;20.60;99.90;;;;;;4998366;28;20280;-50
2021/09/10 08:23:16;;;;;;;9.63;5.97;;;20.70;99.90;;;;;;4998200;28;20237;-51
2021/09/10 08:25:45;;;;;;;8.10;6.00;;;20.60;99.90;;;;;;4998648;28;20197;-50
2021/09/10 08:28:11;;;;;;;11.70;7.03;;;20.60;99.90;;;;;;5005438;28;20690;-50
2021/09/10 08:30:38;;;;;;;9.07;6.67;;;20.40;99.90;;;;;;4999628;28;20285;-51
2021/09/10 08:33:12;;;;;;;9.17;6.63;;;20.50;99.90;;;;;;4996944;28;20331;-50
2021/09/10 08:35:39;;;;;;;10.23;7.00;;;20.40;99.90;;;;;;5002814;28;20662;-50
2021/09/10 08:38:06;;;;;;;10.80;6.93;;;20.60;99.90;;;;;;5000238;28;20290;-51
2021/09/10 08:40:33;;;;;;;8.20;5.37;;;20.60;99.90;;;;;;5004911;28;20247;-50
2021/09/10 08:43:01;;;;;;;6.80;5.57;;;20.90;99.90;;;;;;4995576;28;20233;-50
2021/09/10 08:45:29;;;;;;;9.37;6.20;;;21.10;99.90;;;;;;5003232;28;20289;-50
2021/09/10 08:47:57;;;;;;;8.97;5.27;;;21.40;99.90;;;;;;4995078;28;20565;-50
2021/09/10 08:50:24;;;;;;;9.03;5.67;;;21.50;99.90;;;;;;4999178;28;20197;-51
2021/09/10 08:52:51;;;;;;;9.30;6.00;;;21.60;99.90;;;;;;5007147;28;20312;-50
2021/09/10 08:55:19;;;;;;;12.23;6.07;;;21.50;99.90;;;;;;5006948;28;20770;-51
2021/09/10 08:57:50;;;;;;;8.77;6.10;;;21.40;99.90;;;;;;5002745;28;20205;-50
2021/09/10 09:00:26;;;;;;;8.73;5.70;;;21.40;99.90;;;;;;5002250;28;20288;-50
2021/09/10 09:03:12;;;;;;;7.33;6.27;;;21.40;99.90;;;;;;4999439;28;20319;-52
2021/09/10 09:05:40;;;;;;;10.03;6.33;;;21.50;99.90;;;;;;5000302;28;20206;-51
2021/09/10 09:08:09;;;;;;;7.33;5.43;;;21.30;99.90;;;;;;5003882;28;20335;-51
2021/09/10 09:10:56;;;;;;;8.63;5.20;;;21.40;99.90;;;;;;4996548;28;20621;-51
2021/09/10 09:13:37;;;;;;;10.13;5.93;;;21.50;99.90;;;;;;5003282;28;20316;-50
2021/09/10 09:16:16;;;;;;;9.00;5.63;;;21.50;99.90;;;;;;5001996;28;20572;-50
2021/09/10 09:18:47;;;;;;;8.23;5.63;;;21.40;99.90;;;;;;4999691;28;20240;-50
2021/09/10 09:21:14;;;;;;;8.97;5.23;;;21.80;99.90;;;;;;4998350;28;20230;-50
2021/09/10 09:23:41;;;;;;;7.37;5.90;;;21.80;99.90;;;;;;4994764;28;20368;-50
2021/09/10 09:26:19;;;;;;;8.07;5.63;;;21.70;99.90;;;;;;5003113;28;20251;-50
2021/09/10 09:28:47;;;;;;;9.20;6.13;;;21.60;99.90;;;;;;4999685;28;20287;-50
2021/09/10 09:31:18;;;;;;;8.37;6.00;;;21.50;99.90;;;;;;5008052;28;20620;-50
2021/09/10 09:33:46;;;;;;;8.10;5.43;;;21.50;99.90;;;;;;4997924;28;20646;-50
2021/09/10 09:36:17;;;;;;;11.40;7.67;;;21.60;99.90;;;;;;5001257;28;20318;-51
2021/09/10 09:38:45;;;;;;;7.43;5.77;;;21.70;99.90;;;;;;4997165;28;20237;-51
2021/09/10 09:41:14;;;;;;;7.77;5.77;;;21.80;99.90;;;;;;4999747;28;20642;-51
2021/09/10 09:43:48;;;;;;;7.17;6.37;;;21.70;99.90;;;;;;5000747;28;20234;-51
2021/09/10 09:46:18;;;;;;;9.57;6.57;;;21.80;99.90;;;;;;5002547;28;20719;-51
2021/09/10 09:48:48;;;;;;;8.17;6.43;;;21.70;99.90;;;;;;4994273;28;20201;-51
2021/09/10 09:51:16;;;;;;;8.37;6.07;;;21.80;99.90;;;;;;4997154;28;20283;-51
2021/09/10 09:53:44;;;;;;;11.13;6.53;;;21.80;99.90;;;;;;4998611;28;20259;-51
2021/09/10 09:56:11;;;;;;;7.33;6.60;;;21.70;99.90;;;;;;4996961;28;20300;-51
2021/09/10 09:58:41;;;;;;;8.30;6.50;;;21.70;99.90;;;;;;4998431;28;20200;-51
2021/09/10 10:01:11;;;;;;;9.43;6.80;;;21.70;99.90;;;;;;4999370;28;20215;-51
2021/09/10 10:03:41;;;;;;;8.77;6.40;;;21.80;99.90;;;;;;5002664;28;20203;-50
2021/09/10 10:06:22;;;;;;;9.53;5.93;;;21.90;99.90;;;;;;4992616;28;20206;-51
2021/09/10 10:08:54;;;;;;;9.37;6.57;;;22.20;99.90;;;;;;4998073;28;20684;-51
2021/09/10 10:11:30;;;;;;;7.37;6.50;;;22.20;99.90;;;;;;4996962;28;20254;-51
2021/09/10 10:14:04;;;;;;;11.40;7.50;;;22.10;99.90;;;;;;5000167;28;20672;-51
2021/09/10 10:16:41;;;;;;;7.87;6.77;;;22.20;99.90;;;;;;4997895;28;20577;-51
2021/09/10 10:19:34;;;;;;;10.23;7.00;;;22.30;99.90;;;;;;4994061;28;20206;-51
2021/09/10 10:22:05;;;;;;;8.30;6.77;;;22.30;99.90;;;;;;4994265;28;20228;-51
2021/09/10 10:24:41;;;;;;;8.87;6.07;;;22.30;99.90;;;;;;4997289;28;20212;-51
2021/09/10 10:27:37;;;;;;;6.70;6.00;;;22.40;99.90;;;;;;4994821;28;20202;-51
2021/09/10 10:30:16;;;;;;;8.87;7.43;;;22.50;99.90;;;;;;4992184;28;20259;-51
2021/09/10 10:32:50;;;;;;;8.33;6.80;;;22.50;99.90;;;;;;4992401;28;20319;-51
2021/09/10 10:35:39;;;;;;;7.83;7.03;;;22.50;99.90;;;;;;4997667;28;20618;-51
2021/09/10 10:38:10;;;;;;;8.83;6.67;;;22.50;99.90;;;;;;4995517;28;20280;-51
2021/09/10 10:40:40;;;;;;;7.67;6.83;;;22.40;99.90;;;;;;4993942;28;20220;-51
2021/09/10 10:43:20;;;;;;;6.90;6.20;;;22.30;99.90;;;;;;5002774;28;20276;-51
2021/09/10 10:45:47;;;;;;;7.43;6.33;;;22.50;99.90;;;;;;4998077;28;20269;-50
2021/09/10 10:48:29;;;;;;;9.30;7.10;;;22.50;99.90;;;;;;4994420;28;20212;-50
2021/09/10 10:50:57;;;;;;;7.33;6.63;;;22.50;99.90;;;;;;4993105;28;20206;-51
2021/09/10 10:53:24;;;;;;;9.43;8.43;;;22.60;99.90;;;;;;4992306;28;20320;-50
2021/09/10 10:55:51;;;;;;;9.30;7.90;;;22.60;99.90;;;;;;4996672;28;20219;-51
2021/09/10 10:58:23;;;;;;;9.87;7.63;;;22.70;99.90;;;;;;4999036;28;20283;-51
2021/09/10 11:00:50;;;;;;;8.93;8.07;;;23.10;99.90;;;;;;4995345;28;20605;-51
2021/09/10 11:03:17;;;;;;;9.87;7.90;;;23.30;99.90;;;;;;4997941;28;20629;-51
2021/09/10 11:05:47;;;;;;;7.07;6.37;;;23.40;99.90;;;;;;5000668;28;20201;-51
2021/09/10 11:08:18;;;;;;;11.50;9.40;;;23.50;99.90;;;;;;5003426;28;20367;-51
2021/09/10 11:10:50;;;;;;;10.50;9.10;;;23.30;99.90;;;;;;4992956;28;20534;-51
2021/09/10 11:13:17;;;;;;;10.50;8.90;;;23.50;99.90;;;;;;5007118;28;20291;-52
2021/09/10 11:15:44;;;;;;;9.43;8.47;;;23.40;99.90;;;;;;5008001;28;20676;-52
2021/09/10 11:18:14;;;;;;;10.60;8.33;;;23.40;99.90;;;;;;5008049;28;20231;-53
2021/09/10 11:20:50;;;;;;;10.57;9.03;;;23.30;99.90;;;;;;5005183;28;20206;-50
2021/09/10 11:23:32;;;;;;;10.20;9.17;;;23.00;99.90;;;;;;4996297;28;20228;-50
2021/09/10 11:25:59;;;;;;;8.90;8.00;;;23.00;99.90;;;;;;5001336;28;20645;-52
2021/09/10 11:28:31;;;;;;;11.07;9.30;;;23.00;99.90;;;;;;5002135;28;20257;-50
2021/09/10 11:30:59;;;;;;;9.83;8.93;;;23.00;99.90;;;;;;5006205;28;20285;-52
2021/09/10 11:33:27;;;;;;;11.77;8.67;;;22.70;99.90;;;;;;4996465;28;20284;-52
2021/09/10 11:35:55;;;;;;;8.90;8.10;;;22.70;99.90;;;;;;5003135;28;20216;-49
2021/09/10 11:38:24;;;;;;;10.57;8.57;;;22.70;99.90;;;;;;4998144;28;20274;-50
2021/09/10 11:41:05;;;;;;;8.73;7.93;;;22.60;99.90;;;;;;4999568;28;20200;-52
2021/09/10 11:43:35;;;;;;;9.73;8.83;;;22.70;99.90;;;;;;5000813;28;20852;-50
2021/09/10 11:46:10;;;;;;;8.53;7.47;;;22.70;99.90;;;;;;4998341;28;20400;-50
2021/09/10 11:48:42;;;;;;;9.27;8.10;;;22.50;99.90;;;;;;4996358;28;20228;-51
2021/09/10 11:51:13;;;;;;;9.07;8.17;;;22.40;99.90;;;;;;4998681;28;20215;-50
2021/09/10 11:53:45;;;;;;;17.93;9.30;;;22.30;99.90;;;;;;5000318;28;20274;-50
2021/09/10 11:56:16;;;;;;;12.87;9.00;;;22.30;99.90;;;;;;5001704;28;20338;-50
2021/09/10 11:58:48;;;;;;;13.47;9.40;;;22.00;99.90;;;;;;5002472;28;20248;-50
2021/09/10 12:01:30;;;;;;;14.60;10.97;;;22.20;99.90;;;;;;5000244;28;20237;-50
2021/09/10 12:04:07;;;;;;;18.23;11.10;;;22.10;99.90;;;;;;4999041;28;20237;-50
2021/09/10 12:06:35;;;;;;;14.73;11.20;;;22.20;99.90;;;;;;5001993;28;20322;-50
2021/09/10 12:09:22;;;;;;;14.63;11.10;;;22.10;99.90;;;;;;5002640;28;20245;-51
2021/09/10 12:12:03;;;;;;;13.33;11.50;;;22.10;99.90;;;;;;4998996;28;20980;-51
2021/09/10 12:14:52;;;;;;;12.07;10.87;;;22.00;99.90;;;;;;5000961;28;20685;-51
2021/09/10 12:17:21;;;;;;;12.53;11.23;;;21.90;99.90;;;;;;4996437;28;20202;-51
2021/09/10 12:19:52;;;;;;;16.53;11.80;;;22.00;99.90;;;;;;4990646;28;20701;-51
2021/09/10 12:22:32;;;;;;;15.50;12.60;;;22.10;99.90;;;;;;4995848;28;20292;-51
2021/09/10 12:25:18;;;;;;;16.50;13.17;;;22.10;99.90;;;;;;5000571;28;20531;-51
2021/09/10 12:27:46;;;;;;;13.97;11.33;;;22.00;99.90;;;;;;5000918;28;20288;-51
2021/09/10 12:30:14;;;;;;;14.17;11.07;;;21.90;99.90;;;;;;5001005;28;20311;-50
2021/09/10 12:32:41;;;;;;;12.83;10.83;;;21.70;99.90;;;;;;4997228;28;20230;-51
2021/09/10 12:35:09;;;;;;;14.03;9.57;;;21.60;99.90;;;;;;4995754;28;20264;-51
2021/09/10 12:37:38;;;;;;;13.20;10.37;;;21.60;99.90;;;;;;4998925;28;20555;-50
2021/09/10 12:40:06;;;;;;;13.83;10.03;;;21.80;99.90;;;;;;4994797;28;20695;-51
2021/09/10 12:42:33;;;;;;;13.27;9.57;;;21.90;99.90;;;;;;4999713;28;20248;-51